Hlavní strana
METAR-TAF:

METAR-TAF

Letiště :

Tamanrasset, Alžírsko

zeměpisná šířka: 22-49N, zeměpisná délka: 005-28E, výška: 1377 m

Aktuální stav počasí

Zpráva byla vytvořena před 49 minutami, v 22:30 UTC
Východojihovýchodní vítr 6 kt
Teplota 13°C
Vlhkost vzduchu 15%
Tlak 1021 hPa
Viditelnost 10 km a více
Žádná oblačnost pod 1500 m, nevyskytují se cumulonimby.

METAR: DAAT 242230Z 12006KT CAVOK 13/M13 Q1021

Čas: 00:19 (23:19 UTC)

Předpověď počasí

Zpráva byla vytvořena před 6 hodinami a 19 minutami, v 17:00 UTC
Předpověď platná od 24 v 18 UTC do 25 v 18 UTC
Jihojihovýchodní vítr 13 kt
Viditelnost 10 km a více
Žádná oblačnost pod 1500 m, nevyskytují se cumulonimby.
Pravděpodobnost 40% :
Dočasný
od 25 v 10 UTC do 25 v 17 UTC
Jihojihozápadní vítr 20 kt s nárazy do 30 kt
Viditelnost: 3000 m
nízko zvířený písek

TAF: DAAT 241700Z 2418/2518 16013KT CAVOK PROB40 TEMPO 2510/2517 20020G30KT 3000 DRSA

Stav a předpovědi počasí z více než 4 000 letišť (zprávy METAR a TAF).

Červené a žluté tečky na mapě představují dostupné meteorologické stanice.

Když kurzor umístíte na tečku, zobrazí se název stanice.

Pak kliknutím zobrazíte stav a předpověď počasí.

Chcete-li změnit mapu, kliknutím na zelené tlačítko se znaménkem +mapu přiblížíte, kliknutím na zelené tlačítko se znaménkem – mapu oddálíte a kliknutím na zelené šipky přejdete na sousední mapy.


METAR-TAF: